Current | Forecast
Updated: 11:00 AM JST on December 11, 2017
Observed at Kansai, Japan
Temperature 52°F
Humidity 54%
Dew Point 36°F
Wind West at 25 mph
Pressure 29.89 in (Falling)
Conditions Scattered Clouds
Visibility 6.2 miles
UV 3 out of 16
Clouds (FEW) : 2500 ft
Scattered Clouds (SCT) : 4000 ft
Yesterday's Maximum 57°F
Yesterday's Minimum 46°F approx.
Yesterday's Heating Degree Days 13 approx.
Sunrise6:55 AM JST
Sunset4:49 PM JST
Moon Rise12:02 AM JST
Moon Set12:50 PM JST
Moon PhaseMoon Phase
Last Quarter
Raw METARMETAR RJBB 110200Z 28022KT 9999 FEW025 SCT040 11/02 Q1012 NOSIG


Monday
. High: 75° F.
Tuesday
. High: 73° F.
Wednesday
. High: 73° F.
Thursday
. High: 75° F.
Friday
. High: 73° F.
Saturday
. High: 73° F.
Sunday
. High: 75° F.
Monday
. High: 77° F.

Units: English | Metric

Find the Weather for any City, State or Zipcode, or Country:

U.S. State List | Severe Weather | Tropical Storms | Ski Conditions
United States | Canada | Central America | South America | Asia | Europe | Australia | Africa | Islands

Weather Underground

© Copyright 2017
The Weather Company, LLC